»·PEaware :: VVNG202 KSAN-KNTD

VVNG202 :: KSAN-KNTD

FLIGHT INFORMATION

Flight Status: Arrived
Operator: Unknown
More flights by this operator :: More flights under this callsign
Pilot: Bruce B. (6887)
Aircraft: GRUMMAN AERO F-14 TOMCAT
(F14)
More flights by this aircraft type
Origin: KSAN San Diego Intl-Lindbergh
United States
Destination: KNTD Point Mugu NAS
United States
More flights between these airports :: More routes between these airports
Route: +PEBLE6 SXC V208 VTU
File this flight plan on PilotEdge
Remarks: TEC Route SANN32
Altitude:
(Current/Filed)
10,000ft
Speed:
(Current/Filed)
325kts
Departed: 25-Feb-16 01:31 PM
Arrived: 25-Feb-16 02:05 PM
Distance/Time
Traveled:
127nm/0:34
Distance/Time
To Go:
Arrived

Flight Plot

Page will automatically refresh every two minutes.

Flight plan parsing failed; only flown route is shown


Map Options




Map Legend


Flown Route
Filed Route
Departure Airport
Arrival Airport
Navaid (VOR, NDB)
Fix

Horizontal Profiles

Position Reports

Time Latitude Longitude Heading Altitude Ground
Speed
25-Feb-16 13:04 32.732029 -117.176514 191 21ft 0kts
25-Feb-16 13:05 32.732029 -117.176514 191 21ft 0kts
25-Feb-16 13:06 32.732029 -117.176514 191 21ft 0kts
25-Feb-16 13:07 32.732029 -117.176514 191 21ft 0kts
25-Feb-16 13:08 32.732029 -117.176514 191 21ft 0kts
25-Feb-16 13:09 32.732029 -117.176514 191 21ft 0kts
25-Feb-16 13:10 32.732029 -117.176514 191 21ft 0kts
25-Feb-16 13:11 32.732029 -117.176514 191 21ft 0kts
25-Feb-16 13:12 32.732029 -117.176514 191 21ft 0kts
25-Feb-16 13:13 32.732029 -117.176514 191 21ft 0kts
25-Feb-16 13:14 32.732029 -117.176514 191 21ft 0kts
25-Feb-16 13:15 32.732029 -117.176514 191 21ft 0kts
25-Feb-16 13:16 32.732029 -117.176514 191 21ft 0kts
25-Feb-16 13:17 32.732029 -117.176514 191 21ft 0kts
25-Feb-16 13:18 32.732029 -117.176514 191 21ft 0kts
25-Feb-16 13:19 32.730992 -117.175433 170 21ft 0kts
25-Feb-16 13:20 32.730992 -117.175433 170 21ft 0kts
25-Feb-16 13:21 32.730992 -117.175433 170 21ft 0kts
25-Feb-16 13:22 32.730992 -117.175433 170 21ft 0kts
25-Feb-16 13:23 32.730992 -117.175433 170 21ft 0kts
25-Feb-16 13:24 32.730453 -117.176786 284 21ft 48kts
25-Feb-16 13:25 32.748494 -117.224758 304 1335ft 227kts
25-Feb-16 13:26 32.786862 -117.292841 304 3853ft 264kts
25-Feb-16 13:27 32.829698 -117.366560 305 5502ft 280kts
25-Feb-16 13:28 32.876416 -117.442859 325 6724ft 289kts
25-Feb-16 13:29 32.945998 -117.491585 330 7882ft 289kts
25-Feb-16 13:30 33.000565 -117.558623 304 8979ft 282kts
25-Feb-16 13:31 33.047552 -117.633061 307 9806ft 282kts
25-Feb-16 13:32 33.096450 -117.709164 306 9983ft 292kts
25-Feb-16 13:33 33.144157 -117.789559 306 9993ft 304kts
25-Feb-16 13:34 33.195696 -117.871133 306 10013ft 310kts
25-Feb-16 13:35 33.249795 -117.952092 310 10039ft 310kts
25-Feb-16 13:36 33.305918 -118.030658 310 9943ft 310kts
25-Feb-16 13:37 33.337785 -118.123365 278 9917ft 306kts
25-Feb-16 13:38 33.347249 -118.222818 275 10096ft 297kts
25-Feb-16 13:39 33.358619 -118.321221 284 10018ft 299kts
25-Feb-16 13:40 33.380782 -118.416370 309 10022ft 298kts
25-Feb-16 13:41 33.431100 -118.495067 306 10099ft 299kts
25-Feb-16 13:42 33.481102 -118.575533 309 10064ft 301kts
25-Feb-16 13:43 33.536594 -118.650035 310 10061ft 297kts
25-Feb-16 13:44 33.589139 -118.726376 310 10011ft 295kts
25-Feb-16 13:45 33.642192 -118.800678 310 10061ft 293kts
25-Feb-16 13:46 33.693823 -118.876562 308 10018ft 292kts
25-Feb-16 13:47 33.739084 -118.936509 310 9927ft 278kts
25-Feb-16 13:48 33.781740 -119.001576 311 8338ft 219kts
25-Feb-16 13:49 33.856891 -119.030297 359 8006ft 325kts
25-Feb-16 13:50 33.933182 -119.029595 357 7210ft 312kts
25-Feb-16 13:51 34.006454 -119.036522 355 5787ft 216kts
25-Feb-16 13:52 34.053930 -119.047015 351 3079ft 161kts
25-Feb-16 13:53 34.098202 -119.062841 344 2009ft 169kts
25-Feb-16 13:54 34.142114 -119.046868 31 1999ft 163kts
25-Feb-16 13:55 34.180563 -119.032316 315 1447ft 153kts
25-Feb-16 13:56 34.163933 -119.071015 222 735ft 137kts
25-Feb-16 13:57 34.137545 -119.100640 224 236ft 116kts
25-Feb-16 13:58 34.121160 -119.119768 225 18ft 33kts
25-Feb-16 13:59 34.118480 -119.119113 104 18ft 11kts
25-Feb-16 14:00 34.118025 -119.118398 202 18ft 0kts
25-Feb-16 14:01 34.118025 -119.118398 202 18ft 0kts

Navigation Log

Ident Type
Flight plan parsing failed, navigation log unavailable